Time;durP1;ratioP1;P1;durP2;ratioP2;P2;SDS_P1;SDS_P2;PMS_P1;PMS_P2;Temp;Humidity;BMP_temperature;BMP_pressure;BME280_temperature;BME280_humidity;BME280_pressure;Samples;Min_cycle;Max_cycle;Signal;HPM_P1;HPM_P2
2021/09/18 00:01:57;;;;;;;7.00;6.00;;;;;;;13.48;87.95;96177.16;1689255;84;21440;-82
2021/09/18 00:04:22;;;;;;;11.15;9.43;;;;;;;13.47;88.09;96179.47;1686189;84;21089;-82
2021/09/18 00:06:49;;;;;;;8.18;7.17;;;;;;;13.46;88.06;96184.39;1688491;84;21019;-82
2021/09/18 00:09:15;;;;;;;7.83;6.85;;;;;;;13.42;87.72;96181.91;1697870;82;21034;-82
2021/09/18 00:11:41;;;;;;;6.95;6.15;;;;;;;13.43;87.97;96186.62;1660652;84;21008;-82
2021/09/18 00:14:07;;;;;;;6.40;5.72;;;;;;;13.47;87.96;96177.37;1694858;82;21002;-82
2021/09/18 00:16:32;;;;;;;6.30;5.70;;;;;;;13.47;87.93;96183.39;1700562;83;20984;-82
2021/09/18 00:18:58;;;;;;;6.65;5.28;;;;;;;13.47;87.86;96183.39;1675737;84;21594;-82
2021/09/18 00:21:24;;;;;;;7.00;6.35;;;;;;;13.47;87.72;96178.67;1702835;82;21106;-82
2021/09/18 00:23:50;;;;;;;7.53;6.72;;;;;;;13.46;87.81;96185.70;1703565;82;21080;-82
2021/09/18 00:26:16;;;;;;;7.47;5.83;;;;;;;13.44;87.67;96179.89;1707382;82;22139;-82
2021/09/18 00:28:42;;;;;;;8.23;5.75;;;;;;;13.37;87.30;96183.02;1700382;82;20986;-81
2021/09/18 00:31:08;;;;;;;5.37;4.87;;;;;;;13.38;87.58;96186.44;1701641;82;20968;-82
2021/09/18 00:33:33;;;;;;;6.40;5.15;;;;;;;13.40;87.33;96183.12;1704541;82;21454;-82
2021/09/18 00:35:59;;;;;;;6.40;5.78;;;;;;;13.42;87.34;96179.30;1697866;82;21090;-82
2021/09/18 00:38:25;;;;;;;6.47;5.87;;;;;;;13.42;87.25;96179.30;1712646;82;21350;-82
2021/09/18 00:40:51;;;;;;;6.03;5.53;;;;;;;13.40;87.25;96181.81;1715076;82;21031;-82
2021/09/18 00:43:17;;;;;;;6.92;5.65;;;;;;;13.36;87.18;96180.12;1710954;82;21011;-81
2021/09/18 00:45:43;;;;;;;6.65;5.05;;;;;;;13.29;87.05;96178.51;1705118;82;21447;-82
2021/09/18 00:48:09;;;;;;;5.55;5.05;;;;;;;13.33;87.36;96183.61;1704727;82;21069;-82
2021/09/18 00:50:35;;;;;;;6.95;5.37;;;;;;;13.37;87.44;96180.41;1701080;82;21074;-82
2021/09/18 00:53:01;;;;;;;6.42;5.42;;;;;;;13.40;87.36;96180.00;1693400;84;21514;-82
2021/09/18 00:55:27;;;;;;;6.05;5.40;;;;;;;13.41;87.55;96179.50;1703054;83;21109;-82
2021/09/18 00:57:53;;;;;;;5.85;5.35;;;;;;;13.39;87.44;96177.60;1685649;83;21030;-82
2021/09/18 01:00:19;;;;;;;6.42;5.78;;;;;;;13.39;87.67;96181.52;1680733;84;21032;-82
2021/09/18 01:02:45;;;;;;;5.72;5.15;;;;;;;13.35;87.36;96175.91;1686424;84;21020;-82
2021/09/18 01:05:11;;;;;;;5.95;5.25;;;;;;;13.37;87.55;96180.92;1684739;84;21071;-82
2021/09/18 01:07:37;;;;;;;5.70;5.15;;;;;;;13.30;87.39;96178.30;1684530;84;21059;-82
2021/09/18 01:10:05;;;;;;;14.78;5.67;;;;;;;13.27;87.67;96185.74;1684322;84;21078;-82
2021/09/18 01:12:31;;;;;;;6.62;4.97;;;;;;;13.21;87.80;96185.55;1687198;84;21470;-82
2021/09/18 01:14:56;;;;;;;5.45;4.95;;;;;;;13.17;87.71;96187.41;1681181;84;21142;-82
2021/09/18 01:17:22;;;;;;;6.87;4.75;;;;;;;13.16;87.77;96184.51;1684388;84;21112;-81
2021/09/18 01:19:48;;;;;;;5.03;4.60;;;;;;;13.14;87.63;96186.02;1683826;84;21110;-82
2021/09/18 01:22:16;;;;;;;5.45;4.70;;;;;;;13.13;87.54;96184.41;1662718;84;21493;-82
2021/09/18 01:24:42;;;;;;;5.40;4.15;;;;;;;13.11;87.40;96178.60;1683984;84;21006;-82
2021/09/18 01:27:07;;;;;;;4.72;4.20;;;;;;;13.11;87.61;96185.13;1681248;84;21027;-82
2021/09/18 01:29:33;;;;;;;5.00;4.50;;;;;;;13.11;87.71;96181.21;1681545;84;21417;-82
2021/09/18 01:31:59;;;;;;;4.03;3.62;;;;;;;13.11;87.56;96179.91;1693395;84;21004;-81
2021/09/18 01:34:26;;;;;;;5.83;3.98;;;;;;;13.10;87.48;96178.30;1686568;84;21034;-82
2021/09/18 01:36:52;;;;;;;4.67;3.80;;;;;;;13.11;87.40;96178.60;1683878;84;21443;-82
2021/09/18 01:39:18;;;;;;;4.30;3.50;;;;;;;13.12;87.28;96177.59;1685685;84;21001;-82
2021/09/18 01:41:45;;;;;;;3.50;3.20;;;;;;;13.07;86.58;96176.61;1687941;84;21049;-82
2021/09/18 01:44:12;;;;;;;4.00;3.70;;;;;;;13.04;86.77;96180.93;1680351;84;21066;-81
2021/09/18 01:46:38;;;;;;;4.80;3.50;;;;;;;13.04;86.97;96178.32;1658039;85;22319;-81
2021/09/18 01:49:04;;;;;;;4.15;2.85;;;;;;;13.03;87.10;96175.41;1700757;82;21081;-82
2021/09/18 01:51:32;;;;;;;4.08;2.75;;;;;;;13.06;86.88;96173.20;1707986;82;21062;-82
2021/09/18 01:53:57;;;;;;;4.72;2.90;;;;;;;13.08;86.86;96176.91;1667863;84;21453;-81
2021/09/18 01:56:23;;;;;;;4.67;2.70;;;;;;;13.10;86.53;96169.67;1675617;84;21086;-82
2021/09/18 01:58:49;;;;;;;4.05;2.67;;;;;;;13.07;86.41;96174.00;1653098;84;21066;-81
2021/09/18 02:01:15;;;;;;;3.27;2.98;;;;;;;13.05;86.34;96164.27;1689367;83;21410;-82
2021/09/18 02:03:41;;;;;;;3.30;2.42;;;;;;;13.00;86.14;96168.77;1707523;82;22368;-82
2021/09/18 02:06:07;;;;;;;4.55;2.90;;;;;;;12.89;85.75;96157.66;1676508;84;20987;-81
2021/09/18 02:08:32;;;;;;;2.90;2.70;;;;;;;12.93;85.75;96163.56;1674597;84;21012;-82
2021/09/18 02:10:59;;;;;;;4.35;3.00;;;;;;;12.95;86.13;96167.78;1675162;84;21058;-82
2021/09/18 02:13:25;;;;;;;3.95;3.10;;;;;;;12.96;86.22;96162.36;1674415;84;21064;-81
2021/09/18 02:15:51;;;;;;;3.15;2.83;;;;;;;12.98;86.28;96161.66;1687835;83;21416;-82
2021/09/18 02:18:17;;;;;;;4.47;3.20;;;;;;;12.99;86.14;96163.25;1702634;82;20984;-82
2021/09/18 02:20:43;;;;;;;4.25;3.60;;;;;;;13.01;86.12;96166.96;1711905;82;21836;-81
2021/09/18 02:23:11;;;;;;;4.78;3.52;;;;;;;13.02;86.18;96165.48;1681784;84;21027;-82
2021/09/18 02:25:37;;;;;;;3.37;3.02;;;;;;;13.03;85.95;96156.66;1715227;82;21374;-82
2021/09/18 02:28:03;;;;;;;5.85;3.75;;;;;;;13.02;86.08;96157.66;1710635;82;21038;-81
2021/09/18 02:30:32;;;;;;;4.42;3.12;;;;;;;13.04;86.03;96158.76;1687845;82;21130;-82
2021/09/18 02:32:58;;;;;;;4.45;2.62;;;;;;;12.99;86.29;96152.02;1670550;84;21106;-82
2021/09/18 02:35:26;;;;;;;4.75;3.10;;;;;;;12.98;85.81;96155.64;1715783;82;21003;-82
2021/09/18 02:37:52;;;;;;;3.90;2.70;;;;;;;12.93;85.62;96150.53;1697381;83;21020;-82
2021/09/18 02:40:18;;;;;;;3.25;2.70;;;;;;;12.97;85.82;96152.23;1688240;84;21030;-81
2021/09/18 02:42:48;;;;;;;6.20;3.45;;;;;;;13.01;86.13;96150.01;1683755;83;21035;-81
2021/09/18 02:45:14;;;;;;;5.53;3.55;;;;;;;12.96;85.86;96153.23;1706433;82;20983;-82
2021/09/18 02:47:40;;;;;;;6.87;4.83;;;;;;;12.92;86.02;96148.12;1671949;84;21022;-82
2021/09/18 02:50:07;;;;;;;11.08;6.58;;;;;;;12.89;86.00;96155.05;1681737;83;21048;-81
2021/09/18 02:52:33;;;;;;;9.95;6.33;;;;;;;12.88;86.15;96152.95;1679687;84;21031;-82
2021/09/18 02:54:59;;;;;;;6.40;4.42;;;;;;;12.88;86.13;96150.84;1649705;84;21505;-82
2021/09/18 02:57:25;;;;;;;10.43;6.37;;;;;;;12.90;86.28;96145.72;1679401;83;21446;-81
2021/09/18 02:59:51;;;;;;;4.97;3.85;;;;;;;12.93;86.62;96151.03;1685871;83;21118;-82
2021/09/18 03:02:17;;;;;;;5.45;4.83;;;;;;;12.90;86.23;96141.02;1693556;84;21394;-81
2021/09/18 03:04:43;;;;;;;5.50;4.58;;;;;;;12.86;86.61;96145.03;1680880;84;21030;-82
2021/09/18 03:07:09;;;;;;;4.47;4.08;;;;;;;12.83;86.85;96146.72;1689936;84;21073;-82
2021/09/18 03:09:35;;;;;;;4.60;3.58;;;;;;;12.84;86.79;96145.70;1680447;84;21011;-81
2021/09/18 03:12:00;;;;;;;4.15;3.58;;;;;;;12.83;86.67;96142.80;1686747;84;21074;-81
2021/09/18 03:14:26;;;;;;;4.42;4.03;;;;;;;12.85;86.96;96143.40;1684026;84;21126;-82
2021/09/18 03:16:52;;;;;;;4.80;4.40;;;;;;;12.86;86.85;96142.42;1678915;84;21441;-81
2021/09/18 03:19:18;;;;;;;6.10;4.92;;;;;;;12.89;87.17;96137.60;1684682;84;21103;-82
2021/09/18 03:21:44;;;;;;;6.25;5.40;;;;;;;12.90;87.21;96137.09;1693008;84;21102;-82
2021/09/18 03:24:10;;;;;;;5.78;5.17;;;;;;;12.91;87.43;96137.40;1655212;85;21027;-82
2021/09/18 03:26:35;;;;;;;5.87;5.17;;;;;;;12.95;87.37;96136.48;1664815;84;21034;-81
2021/09/18 03:29:02;;;;;;;6.65;5.37;;;;;;;12.96;87.29;96138.89;1645801;84;20976;-82
2021/09/18 03:31:30;;;;;;;6.97;6.33;;;;;;;12.96;87.44;96136.28;1696141;84;21114;-82
2021/09/18 03:33:55;;;;;;;7.50;6.80;;;;;;;13.01;87.33;96136.47;1693970;84;21044;-82
2021/09/18 03:36:21;;;;;;;7.33;6.05;;;;;;;13.00;87.50;96137.47;1675427;84;21015;-82
2021/09/18 03:38:47;;;;;;;7.25;6.08;;;;;;;13.01;87.36;96133.86;1686079;83;21338;-82
2021/09/18 03:41:13;;;;;;;5.97;5.42;;;;;;;13.01;87.69;96131.75;1695827;84;21044;-82
2021/09/18 03:43:39;;;;;;;6.95;6.05;;;;;;;13.03;87.58;96137.59;1682289;84;21022;-82
2021/09/18 03:46:05;;;;;;;6.17;5.50;;;;;;;13.02;87.37;96139.91;1683542;84;20981;-82
2021/09/18 03:48:30;;;;;;;6.17;5.58;;;;;;;13.04;87.46;96140.50;1692573;83;21039;-82
2021/09/18 03:50:56;;;;;;;6.87;6.25;;;;;;;13.05;87.57;96130.37;1691766;84;21604;-81
2021/09/18 03:53:22;;;;;;;6.83;6.17;;;;;;;13.06;87.47;96131.47;1683636;84;21078;-82
2021/09/18 03:55:47;;;;;;;7.08;5.37;;;;;;;13.04;87.28;96137.89;1682651;84;21083;-82
2021/09/18 03:58:13;;;;;;;5.90;5.37;;;;;;;13.00;87.16;96131.45;1691099;84;21022;-82
2021/09/18 04:00:39;;;;;;;6.75;5.28;;;;;;;12.95;87.29;96129.47;1684556;84;21484;-81
2021/09/18 04:03:05;;;;;;;6.05;5.35;;;;;;;12.95;87.34;96131.27;1692011;84;21360;-81
2021/09/18 04:05:30;;;;;;;6.90;4.75;;;;;;;12.90;86.91;96138.41;1672102;84;21044;-82
2021/09/18 04:07:56;;;;;;;5.60;5.10;;;;;;;12.86;87.01;96134.61;1699758;84;21060;-81
2021/09/18 04:10:22;;;;;;;5.92;5.37;;;;;;;12.84;87.13;96139.19;1691796;84;21406;-82
2021/09/18 04:12:48;;;;;;;6.05;5.05;;;;;;;12.82;87.16;96132.08;1696286;84;21083;-82
2021/09/18 04:15:13;;;;;;;5.40;4.90;;;;;;;12.83;87.31;96138.39;1698337;84;21004;-81
2021/09/18 04:17:39;;;;;;;6.05;5.22;;;;;;;12.84;87.37;96138.69;1685062;84;21003;-82
2021/09/18 04:20:06;;;;;;;4.33;3.92;;;;;;;12.84;87.32;96130.87;1675308;84;21037;-81
2021/09/18 04:22:32;;;;;;;5.15;4.25;;;;;;;12.89;87.42;96138.10;1682336;84;21117;-81
2021/09/18 04:24:58;;;;;;;5.35;4.85;;;;;;;12.91;87.42;96135.59;1700322;84;21079;-81
2021/09/18 04:27:24;;;;;;;5.37;4.87;;;;;;;12.92;87.16;96142.41;1681208;84;21416;-82
2021/09/18 04:29:49;;;;;;;5.85;4.95;;;;;;;12.88;86.76;96149.55;1700512;84;21006;-82
2021/09/18 04:32:16;;;;;;;5.58;5.05;;;;;;;12.79;86.54;96146.82;1682110;84;21082;-81
2021/09/18 04:34:42;;;;;;;5.33;4.83;;;;;;;12.67;86.32;96149.22;1688765;84;21465;-81
2021/09/18 04:37:08;;;;;;;4.90;4.42;;;;;;;12.63;86.60;96164.46;1680241;84;21095;-82
2021/09/18 04:39:33;;;;;;;5.92;4.58;;;;;;;12.60;86.46;96164.87;1688445;84;21103;-82
2021/09/18 04:41:59;;;;;;;6.33;4.10;;;;;;;12.58;86.18;96159.05;1685408;84;21113;-82
2021/09/18 04:44:25;;;;;;;4.30;3.92;;;;;;;12.60;86.46;96159.66;1686004;84;21502;-81
2021/09/18 04:46:50;;;;;;;4.55;4.15;;;;;;;12.58;86.23;96159.05;1689866;84;21014;-81
2021/09/18 04:49:16;;;;;;;5.33;4.15;;;;;;;12.57;86.37;96161.36;1694219;84;21095;-81
2021/09/18 04:51:42;;;;;;;4.25;3.83;;;;;;;12.52;86.33;96159.83;1682067;84;21483;-81
2021/09/18 04:54:08;;;;;;;4.92;4.42;;;;;;;12.52;86.34;96162.94;1689858;84;21023;-82
2021/09/18 04:56:34;;;;;;;4.00;3.70;;;;;;;12.53;86.25;96159.36;1689779;84;21067;-82
2021/09/18 04:59:01;;;;;;;4.53;4.15;;;;;;;12.53;86.14;96164.07;1671677;84;20988;-82
2021/09/18 05:01:27;;;;;;;3.87;3.50;;;;;;;12.52;86.03;96165.55;1677784;84;21075;-82
2021/09/18 05:03:53;;;;;;;4.85;4.42;;;;;;;12.52;86.21;96166.34;1688928;84;20952;-81
2021/09/18 05:06:19;;;;;;;3.87;3.45;;;;;;;12.50;85.88;96165.75;1690509;83;21098;-82
2021/09/18 05:08:45;;;;;;;3.92;3.52;;;;;;;12.47;85.76;96171.86;1672845;84;21021;-81
2021/09/18 05:11:11;;;;;;;3.98;3.58;;;;;;;12.44;85.56;96173.56;1690467;84;21560;-81
2021/09/18 05:13:36;;;;;;;4.37;4.00;;;;;;;12.45;85.61;96175.97;1712044;83;21042;-82
2021/09/18 05:16:02;;;;;;;3.90;3.50;;;;;;;12.49;85.85;96169.35;1718298;83;21027;-82
2021/09/18 05:18:30;;;;;;;4.72;3.50;;;;;;;12.51;85.83;96169.95;1706965;83;21398;-81
2021/09/18 05:20:56;;;;;;;4.35;3.65;;;;;;;12.51;86.32;96176.47;1713587;83;21382;-81
2021/09/18 05:23:22;;;;;;;3.75;3.00;;;;;;;12.53;86.32;96175.00;1654863;84;21090;-81
2021/09/18 05:25:48;;;;;;;4.08;3.35;;;;;;;12.54;86.37;96173.99;1679821;84;21262;-81
2021/09/18 05:28:14;;;;;;;4.70;3.70;;;;;;;12.53;85.45;96175.80;1684216;83;21346;-81
2021/09/18 05:30:39;;;;;;;3.70;3.30;;;;;;;12.50;85.54;96174.87;1696361;84;21186;-81
2021/09/18 05:33:05;;;;;;;3.95;3.65;;;;;;;12.52;85.32;96179.88;1687148;84;21016;-81
2021/09/18 05:35:31;;;;;;;4.90;3.50;;;;;;;12.51;85.57;96186.09;1671337;83;21018;-82
2021/09/18 05:37:57;;;;;;;3.50;3.10;;;;;;;12.51;85.46;96184.28;1690764;84;21007;-81
2021/09/18 05:40:25;;;;;;;3.67;3.02;;;;;;;12.53;85.76;96182.31;1673101;84;20996;-82
2021/09/18 05:42:51;;;;;;;3.40;3.10;;;;;;;12.56;85.37;96184.52;1689764;84;21070;-82
2021/09/18 05:45:17;;;;;;;4.70;3.27;;;;;;;12.60;84.86;96185.72;1665417;84;21350;-82
2021/09/18 05:47:43;;;;;;;4.85;3.70;;;;;;;12.59;84.41;96190.63;1681232;84;21023;-82
2021/09/18 05:50:10;;;;;;;3.70;3.40;;;;;;;12.56;84.35;96191.53;1677640;84;21090;-82
2021/09/18 05:52:36;;;;;;;3.17;2.87;;;;;;;12.56;84.66;96185.82;1673258;84;21034;-81
2021/09/18 05:55:01;;;;;;;3.87;2.83;;;;;;;12.60;84.94;96190.13;1690339;84;21034;-82
2021/09/18 05:57:27;;;;;;;4.25;3.25;;;;;;;12.62;84.00;96186.31;1679259;84;21027;-82
2021/09/18 05:59:53;;;;;;;3.47;2.90;;;;;;;12.57;83.11;96191.83;1677481;84;21007;-81
2021/09/18 06:02:19;;;;;;;4.00;3.02;;;;;;;12.49;83.34;96192.81;1677409;84;21041;-81
2021/09/18 06:04:44;;;;;;;4.08;3.67;;;;;;;12.48;83.98;96190.41;1695209;84;20980;-82
2021/09/18 06:07:10;;;;;;;2.90;2.60;;;;;;;12.49;83.96;96190.20;1667104;84;21067;-82
2021/09/18 06:09:36;;;;;;;4.17;2.65;;;;;;;12.48;83.63;96194.31;1677074;84;21053;-81
2021/09/18 06:12:02;;;;;;;3.50;2.85;;;;;;;12.50;83.92;96195.72;1671444;84;21109;-81
2021/09/18 06:14:29;;;;;;;3.90;2.75;;;;;;;12.46;82.89;96198.92;1679639;84;21010;-81
2021/09/18 06:16:55;;;;;;;2.83;2.60;;;;;;;12.45;83.30;96196.81;1680661;84;21490;-81
2021/09/18 06:19:20;;;;;;;3.45;2.62;;;;;;;12.42;82.86;96198.52;1687138;84;21450;-82
2021/09/18 06:21:46;;;;;;;4.22;2.52;;;;;;;12.44;82.96;96199.13;1691924;83;21027;-82
2021/09/18 06:24:14;;;;;;;2.80;2.27;;;;;;;12.41;82.66;96201.33;1682016;84;21082;-81
2021/09/18 06:26:40;;;;;;;2.87;2.33;;;;;;;12.41;82.74;96203.43;1671503;84;21051;-82
2021/09/18 06:29:06;;;;;;;3.65;2.05;;;;;;;12.45;82.30;96202.03;1694096;83;20979;-81
2021/09/18 06:31:32;;;;;;;3.35;2.20;;;;;;;12.48;82.27;96202.12;1682699;84;21357;-81
2021/09/18 06:33:57;;;;;;;4.40;2.75;;;;;;;12.54;83.02;96203.47;1670482;84;20983;-82
2021/09/18 06:36:23;;;;;;;12.43;6.00;;;;;;;12.60;82.48;96201.86;1669266;85;21399;-82
2021/09/18 06:38:49;;;;;;;9.38;3.98;;;;;;;12.58;82.37;96203.36;1669665;84;21063;-82
2021/09/18 06:41:14;;;;;;;4.33;3.40;;;;;;;12.58;83.06;96203.36;1672799;84;21060;-81
2021/09/18 06:43:41;;;;;;;6.33;4.75;;;;;;;12.58;81.77;96205.97;1685978;83;21016;-81
2021/09/18 06:46:07;;;;;;;6.97;5.47;;;;;;;12.57;82.31;96207.47;1687745;83;21094;-81
2021/09/18 06:48:32;;;;;;;3.40;3.10;;;;;;;12.58;82.29;96208.58;1674596;83;21386;-81
2021/09/18 06:50:58;;;;;;;4.53;4.10;;;;;;;12.54;81.39;96206.07;1674631;84;21026;-81
2021/09/18 06:53:24;;;;;;;3.90;3.50;;;;;;;12.48;81.88;96206.03;1690895;83;21035;-81
2021/09/18 06:55:50;;;;;;;3.37;2.30;;;;;;;12.49;82.55;96207.14;1705543;83;21449;-81
2021/09/18 06:58:16;;;;;;;3.85;3.05;;;;;;;12.51;82.03;96214.76;1698767;83;21020;-81
2021/09/18 07:00:41;;;;;;;4.72;3.37;;;;;;;12.52;82.02;96205.44;1692936;84;21010;-81
2021/09/18 07:03:07;;;;;;;3.33;2.83;;;;;;;12.53;82.07;96208.38;1676013;84;21068;-82
2021/09/18 07:05:33;;;;;;;4.75;3.33;;;;;;;12.56;82.48;96207.97;1656625;83;21369;-81
2021/09/18 07:07:59;;;;;;;4.60;3.02;;;;;;;12.56;81.76;96206.67;1691067;83;21031;-81
2021/09/18 07:10:25;;;;;;;4.30;2.72;;;;;;;12.57;82.23;96208.27;1704199;83;21045;-81
2021/09/18 07:12:51;;;;;;;3.30;3.00;;;;;;;12.62;82.12;96216.30;1668633;84;22066;-81
2021/09/18 07:15:18;;;;;;;7.15;4.78;;;;;;;12.67;81.85;96214.89;1680483;84;21058;-81
2021/09/18 07:17:44;;;;;;;4.72;3.35;;;;;;;12.69;81.68;96211.58;1681873;84;21030;-81
2021/09/18 07:20:10;;;;;;;21.02;10.18;;;;;;;12.68;82.06;96213.38;1669399;85;21388;-81
2021/09/18 07:22:36;;;;;;;4.20;3.20;;;;;;;12.69;81.95;96211.58;1691230;83;21057;-81
2021/09/18 07:25:03;;;;;;;3.15;2.40;;;;;;;12.66;81.48;96203.66;1686387;83;21060;-81
2021/09/18 07:27:28;;;;;;;2.55;2.35;;;;;;;12.63;81.18;96207.47;1665113;84;21358;-82
2021/09/18 07:29:56;;;;;;;5.35;3.27;;;;;;;12.65;81.58;96202.56;1712781;83;20995;-82
2021/09/18 07:32:22;;;;;;;12.10;7.95;;;;;;;12.74;81.89;96201.38;1668208;84;21019;-81
2021/09/18 07:34:48;;;;;;;10.20;7.08;;;;;;;12.80;82.25;96206.59;1681750;84;21060;-81
2021/09/18 07:37:14;;;;;;;19.25;11.40;;;;;;;12.87;81.78;96207.41;1680958;84;21025;-81
2021/09/18 07:39:39;;;;;;;5.78;3.40;;;;;;;12.94;82.25;96208.70;1666906;84;21017;-81
2021/09/18 07:42:05;;;;;;;24.60;12.10;;;;;;;13.03;81.89;96210.63;1685274;84;20972;-82
2021/09/18 07:44:31;;;;;;;6.67;4.10;;;;;;;13.18;82.61;96204.73;1687479;84;21417;-81
2021/09/18 07:46:57;;;;;;;12.07;6.33;;;;;;;13.20;81.10;96204.83;1678068;84;21418;-81
2021/09/18 07:49:23;;;;;;;3.95;2.72;;;;;;;13.22;81.40;96200.70;1687449;84;21066;-81
2021/09/18 07:51:49;;;;;;;6.15;3.55;;;;;;;13.21;80.73;96206.43;1688618;84;21038;-81
2021/09/18 07:54:14;;;;;;;4.28;2.40;;;;;;;13.17;80.48;96203.07;1695558;84;21130;-81
2021/09/18 07:56:40;;;;;;;2.60;2.40;;;;;;;13.17;79.91;96202.56;1655791;85;21006;-81
2021/09/18 07:59:06;;;;;;;3.30;3.00;;;;;;;13.20;79.42;96201.42;1668932;84;20988;-82
2021/09/18 08:01:32;;;;;;;9.10;5.22;;;;;;;13.19;79.77;96203.73;1724045;83;21050;-81
2021/09/18 08:04:02;;;;;;;6.28;4.60;;;;;;;13.23;79.60;96199.70;1707725;83;21087;-82
2021/09/18 08:06:29;;;;;;;4.10;3.70;;;;;;;13.27;80.14;96206.11;1684395;84;20978;-82
2021/09/18 08:08:56;;;;;;;3.55;1.77;;;;;;;13.27;79.27;96202.70;1679463;84;21063;-82
2021/09/18 08:11:22;;;;;;;2.98;2.62;;;;;;;13.28;79.11;96197.78;1685506;84;21040;-82
2021/09/18 08:13:51;;;;;;;9.65;6.75;;;;;;;13.30;79.20;96204.90;1677399;84;21067;-81
2021/09/18 08:16:17;;;;;;;4.20;3.22;;;;;;;13.25;79.00;96196.89;1667761;84;21419;-82
2021/09/18 08:18:43;;;;;;;3.58;3.08;;;;;;;13.20;78.53;96198.81;1681194;84;20978;-81
2021/09/18 08:21:09;;;;;;;10.43;6.58;;;;;;;13.13;78.60;96203.18;1691111;84;21371;-82
2021/09/18 08:23:35;;;;;;;18.07;9.35;;;;;;;13.07;79.54;96207.41;1671877;84;21094;-82
2021/09/18 08:26:01;;;;;;;7.53;5.00;;;;;;;13.06;79.69;96198.48;1657978;84;21108;-82
2021/09/18 08:28:26;;;;;;;6.50;5.45;;;;;;;13.02;79.04;96203.81;1663822;85;21428;-81
2021/09/18 08:30:52;;;;;;;2.50;2.30;;;;;;;13.00;79.11;96202.67;1667362;84;21049;-82
2021/09/18 08:33:18;;;;;;;3.27;2.35;;;;;;;12.96;78.30;96196.27;1700955;84;21053;-82
2021/09/18 08:35:44;;;;;;;8.15;4.22;;;;;;;12.90;78.29;96197.08;1696270;84;21084;-82
2021/09/18 08:38:10;;;;;;;16.45;7.15;;;;;;;12.89;78.40;96198.08;1668634;84;21070;-82
2021/09/18 08:40:37;;;;;;;2.30;1.92;;;;;;;12.88;78.65;96194.67;1688504;84;21057;-81
2021/09/18 08:43:04;;;;;;;8.45;4.50;;;;;;;12.87;78.29;96198.78;1681655;84;21074;-81
2021/09/18 08:45:30;;;;;;;3.80;2.65;;;;;;;12.87;77.65;96201.39;1672834;84;21406;-81
2021/09/18 08:47:56;;;;;;;7.97;4.05;;;;;;;12.86;78.04;96202.39;1679180;84;21144;-81
2021/09/18 08:50:22;;;;;;;3.98;2.35;;;;;;;12.87;78.15;96210.02;1698797;84;21113;-82
2021/09/18 08:52:48;;;;;;;4.90;3.40;;;;;;;12.86;78.21;96205.00;1686697;84;21129;-81
2021/09/18 08:55:15;;;;;;;3.62;2.47;;;;;;;12.84;77.95;96206.98;1687471;84;21011;-82
2021/09/18 08:57:41;;;;;;;5.70;3.70;;;;;;;12.80;77.58;96207.89;1670020;84;20989;-81
2021/09/18 09:00:11;;;;;;;6.05;3.27;;;;;;;12.79;78.10;96210.70;1700515;84;21014;-81
2021/09/18 09:02:40;;;;;;;6.17;3.60;;;;;;;12.82;78.16;96207.69;1692934;84;21098;-81
2021/09/18 09:05:09;;;;;;;3.55;2.50;;;;;;;12.89;78.40;96207.20;1693997;83;21090;-82
2021/09/18 09:07:35;;;;;;;5.80;3.67;;;;;;;12.98;78.85;96205.98;1682116;84;21454;-81
2021/09/18 09:10:03;;;;;;;4.87;3.00;;;;;;;13.11;79.23;96197.36;1683446;84;21066;-81
2021/09/18 09:12:35;;;;;;;6.28;3.62;;;;;;;13.12;78.90;96197.16;1674154;84;21028;-81
2021/09/18 09:15:05;;;;;;;3.62;2.45;;;;;;;13.15;79.73;96203.77;1677719;84;21529;-81
2021/09/18 09:17:33;;;;;;;2.80;2.50;;;;;;;13.14;78.97;96207.39;1693888;84;21107;-81
2021/09/18 09:20:00;;;;;;;4.17;2.52;;;;;;;13.12;78.76;96207.59;1693875;84;21544;-81
2021/09/18 09:22:47;;;;;;;11.05;6.17;;;;;;;13.10;78.57;96207.50;1686659;84;21067;-81
2021/09/18 09:25:34;;;;;;;7.42;4.37;;;;;;;13.12;79.00;96215.92;1689970;83;21086;-81
2021/09/18 09:28:25;;;;;;;4.70;3.27;;;;;;;13.20;79.65;96212.66;1690597;84;21481;-81
2021/09/18 09:30:53;;;;;;;4.80;2.85;;;;;;;13.33;79.71;96212.32;1686307;84;21033;-82
2021/09/18 09:33:19;;;;;;;3.15;2.40;;;;;;;13.39;79.36;96211.02;1669789;84;21019;-81
2021/09/18 09:35:44;;;;;;;4.53;3.35;;;;;;;13.45;79.80;96213.31;1685460;84;21008;-81
2021/09/18 09:38:10;;;;;;;7.65;4.30;;;;;;;13.54;79.97;96213.41;1694668;84;20991;-81
2021/09/18 09:40:46;;;;;;;4.95;4.10;;;;;;;13.57;78.32;96208.28;1686594;84;21019;-81
2021/09/18 09:43:13;;;;;;;8.48;5.60;;;;;;;13.54;77.87;96209.50;1686561;84;21623;-81
2021/09/18 09:45:39;;;;;;;5.78;5.15;;;;;;;13.51;78.38;96208.60;1671301;84;21073;-81
2021/09/18 09:48:14;;;;;;;4.45;3.35;;;;;;;13.52;78.68;96207.59;1670627;84;21442;-82
2021/09/18 09:50:43;;;;;;;7.25;4.55;;;;;;;13.55;77.91;96203.27;1670057;84;21058;-82
2021/09/18 09:53:26;;;;;;;6.30;3.30;;;;;;;13.56;78.40;96202.77;1684717;84;21056;-81
2021/09/18 09:55:52;;;;;;;5.42;3.60;;;;;;;13.55;77.92;96201.96;1675228;84;21048;-81
2021/09/18 09:58:18;;;;;;;6.37;4.20;;;;;;;13.53;77.80;96205.78;1676402;84;21031;-81
2021/09/18 10:00:51;;;;;;;6.15;4.75;;;;;;;13.46;77.02;96209.19;1692931;84;21402;-82
2021/09/18 10:03:22;;;;;;;5.97;4.35;;;;;;;13.34;76.02;96206.92;1713298;82;21082;-81
2021/09/18 10:05:47;;;;;;;3.10;2.58;;;;;;;13.25;75.99;96199.50;1681342;84;21053;-82
2021/09/18 10:08:13;;;;;;;9.95;6.08;;;;;;;13.27;76.09;96202.70;1672571;84;21438;-81
2021/09/18 10:10:40;;;;;;;4.75;3.87;;;;;;;13.32;76.61;96204.99;1671850;84;21058;-82
2021/09/18 10:13:06;;;;;;;3.67;3.30;;;;;;;13.43;76.34;96204.89;1677667;84;21409;-82
2021/09/18 10:15:32;;;;;;;8.80;5.62;;;;;;;13.51;75.99;96199.47;1688655;84;21007;-81
2021/09/18 10:18:00;;;;;;;8.98;4.75;;;;;;;13.60;75.94;96196.12;1641980;86;21072;-82
2021/09/18 10:25:39;;;;;;;3.52;3.10;;;;;;;14.04;74.98;96197.48;1680934;84;21105;-81
2021/09/18 10:28:17;;;;;;;6.33;4.00;;;;;;;14.21;73.83;96193.89;1683475;84;21042;-81
2021/09/18 10:30:52;;;;;;;9.03;5.22;;;;;;;14.29;73.91;96196.75;1684125;84;21155;-81
2021/09/18 10:33:49;;;;;;;5.97;4.67;;;;;;;14.43;74.56;96195.67;1686763;84;21016;-81
2021/09/18 10:36:29;;;;;;;4.37;3.50;;;;;;;14.60;75.00;96190.27;1687676;84;21024;-82
2021/09/18 10:39:14;;;;;;;4.08;3.60;;;;;;;14.75;72.19;96189.16;1670832;84;21375;-81
2021/09/18 10:41:52;;;;;;;6.08;3.95;;;;;;;14.73;72.56;96182.04;1673977;84;20987;-82
2021/09/18 10:44:20;;;;;;;4.50;3.33;;;;;;;14.75;73.59;96188.66;1680471;84;21060;-82
2021/09/18 10:46:53;;;;;;;3.60;3.22;;;;;;;14.88;73.94;96193.80;1686203;84;20993;-82
2021/09/18 10:49:43;;;;;;;5.08;4.30;;;;;;;14.97;73.60;96187.81;1679805;84;21102;-82
2021/09/18 10:52:24;;;;;;;3.42;3.12;;;;;;;15.06;73.36;96183.09;1678162;84;21027;-82
2021/09/18 10:55:08;;;;;;;3.10;2.67;;;;;;;15.00;72.02;96182.95;1676710;84;21513;-82
2021/09/18 10:57:45;;;;;;;6.55;4.50;;;;;;;14.94;71.83;96186.39;1683554;84;21039;-82
2021/09/18 11:00:26;;;;;;;3.42;3.05;;;;;;;14.89;72.58;96188.86;1684510;84;21047;-82
2021/09/18 11:02:57;;;;;;;5.37;3.98;;;;;;;14.87;72.86;96196.63;1672803;84;21014;-82
2021/09/18 11:05:40;;;;;;;6.35;3.62;;;;;;;14.87;72.33;96193.51;1685328;83;21025;-82
2021/09/18 11:08:21;;;;;;;4.10;3.55;;;;;;;14.82;72.59;96188.13;1672308;84;21130;-82
2021/09/18 11:10:50;;;;;;;6.15;3.75;;;;;;;14.81;73.19;96192.27;1661326;84;21059;-81
2021/09/18 11:13:23;;;;;;;4.47;3.17;;;;;;;14.83;73.09;96186.30;1667828;84;21012;-82
2021/09/18 11:15:55;;;;;;;6.40;4.65;;;;;;;14.90;73.42;96178.69;1664225;84;21038;-82
2021/09/18 11:18:40;;;;;;;4.10;3.70;;;;;;;15.05;73.68;96191.95;1672837;84;21038;-82
2021/09/18 11:21:28;;;;;;;3.52;2.98;;;;;;;15.02;72.01;96190.58;1683414;84;21570;-82
2021/09/18 11:24:18;;;;;;;5.80;4.17;;;;;;;14.94;71.25;96182.47;1685419;83;21128;-82
2021/09/18 11:26:54;;;;;;;5.70;4.05;;;;;;;14.81;71.97;96186.52;1669552;84;21065;-81
2021/09/18 11:29:35;;;;;;;3.58;3.10;;;;;;;14.69;72.12;96193.44;1677799;84;21061;-82
2021/09/18 11:32:18;;;;;;;3.15;2.77;;;;;;;14.48;71.61;96196.37;1685326;84;20983;-82
2021/09/18 11:34:53;;;;;;;4.17;3.70;;;;;;;14.20;71.75;96194.09;1670589;84;21367;-82
2021/09/18 11:37:28;;;;;;;4.87;4.37;;;;;;;14.03;71.99;96197.19;1678445;84;21011;-82
2021/09/18 11:40:00;;;;;;;4.58;3.92;;;;;;;13.94;72.05;96195.00;1693842;83;21008;-82
2021/09/18 11:42:35;;;;;;;4.22;3.83;;;;;;;13.88;73.15;96205.78;1702145;83;21436;-82